sensor_id;sensor_type;location;lat;lon;timestamp;pressure;altitude;pressure_sealevel;temperature;humidity
56721;BME280;53183;47.412;18.884;2023-01-26T00:00:55;100007.44;;;1.88;100.00
56721;BME280;53183;47.412;18.884;2023-01-26T00:03:23;100000.50;;;1.84;100.00
56721;BME280;53183;47.412;18.884;2023-01-26T00:05:51;99997.06;;;1.82;100.00
56721;BME280;53183;47.412;18.884;2023-01-26T00:08:18;99994.50;;;1.77;100.00
56721;BME280;53183;47.412;18.884;2023-01-26T00:10:46;99992.78;;;1.76;100.00
56721;BME280;53183;47.412;18.884;2023-01-26T00:13:19;99985.87;;;1.72;100.00
56721;BME280;53183;47.412;18.884;2023-01-26T00:15:46;99983.28;;;1.68;100.00
56721;BME280;53183;47.412;18.884;2023-01-26T00:18:14;99984.19;;;1.67;100.00
56721;BME280;53183;47.412;18.884;2023-01-26T00:20:41;99997.22;;;1.67;100.00
56721;BME280;53183;47.412;18.884;2023-01-26T00:23:08;99987.59;;;1.73;100.00
56721;BME280;53183;47.412;18.884;2023-01-26T00:25:36;99985.91;;;1.69;100.00
56721;BME280;53183;47.412;18.884;2023-01-26T00:28:03;99985.03;;;1.67;100.00
56721;BME280;53183;47.412;18.884;2023-01-26T00:30:31;99979.84;;;1.69;100.00
56721;BME280;53183;47.412;18.884;2023-01-26T00:32:58;99978.06;;;1.71;100.00
56721;BME280;53183;47.412;18.884;2023-01-26T00:35:26;99977.25;;;1.64;100.00
56721;BME280;53183;47.412;18.884;2023-01-26T00:37:54;99978.09;;;1.64;100.00
56721;BME280;53183;47.412;18.884;2023-01-26T00:40:21;99975.50;;;1.64;100.00
56721;BME280;53183;47.412;18.884;2023-01-26T00:42:51;99979.88;;;1.62;100.00
56721;BME280;53183;47.412;18.884;2023-01-26T00:45:21;99984.22;;;1.65;100.00
56721;BME280;53183;47.412;18.884;2023-01-26T00:47:48;99983.31;;;1.66;100.00
56721;BME280;53183;47.412;18.884;2023-01-26T00:50:15;99982.47;;;1.64;100.00
56721;BME280;53183;47.412;18.884;2023-01-26T00:52:43;99976.41;;;1.63;100.00
56721;BME280;53183;47.412;18.884;2023-01-26T00:55:10;99965.09;;;1.66;100.00
56721;BME280;53183;47.412;18.884;2023-01-26T00:57:39;99969.41;;;1.69;100.00
56721;BME280;53183;47.412;18.884;2023-01-26T01:00:07;99964.94;;;1.81;100.00
56721;BME280;53183;47.412;18.884;2023-01-26T01:02:37;99963.31;;;1.71;100.00
56721;BME280;53183;47.412;18.884;2023-01-26T01:05:04;99964.19;;;1.69;100.00
56721;BME280;53183;47.412;18.884;2023-01-26T01:07:32;99962.41;;;1.74;100.00
56721;BME280;53183;47.412;18.884;2023-01-26T01:09:59;99959.78;;;1.75;100.00
56721;BME280;53183;47.412;18.884;2023-01-26T01:12:26;99964.16;;;1.75;100.00
56721;BME280;53183;47.412;18.884;2023-01-26T01:14:54;99969.38;;;1.72;100.00
56721;BME280;53183;47.412;18.884;2023-01-26T01:17:22;99959.84;;;1.69;100.00
56721;BME280;53183;47.412;18.884;2023-01-26T01:19:50;99958.94;;;1.73;100.00
56721;BME280;53183;47.412;18.884;2023-01-26T01:22:20;99951.09;;;1.78;100.00
56721;BME280;53183;47.412;18.884;2023-01-26T01:24:47;99951.06;;;1.79;100.00
56721;BME280;53183;47.412;18.884;2023-01-26T01:27:15;99958.06;;;1.73;100.00
56721;BME280;53183;47.412;18.884;2023-01-26T01:29:42;99948.59;;;1.66;100.00
56721;BME280;53183;47.412;18.884;2023-01-26T01:32:10;99946.00;;;1.61;100.00
56721;BME280;53183;47.412;18.884;2023-01-26T01:34:37;99946.09;;;1.55;100.00
56721;BME280;53183;47.412;18.884;2023-01-26T01:37:04;99944.34;;;1.57;100.00
56721;BME280;53183;47.412;18.884;2023-01-26T01:39:32;99947.78;;;1.59;100.00
56721;BME280;53183;47.412;18.884;2023-01-26T01:41:59;99944.34;;;1.54;100.00
56721;BME280;53183;47.412;18.884;2023-01-26T01:44:27;99943.50;;;1.55;100.00
56721;BME280;53183;47.412;18.884;2023-01-26T01:46:59;99945.22;;;1.54;100.00
56721;BME280;53183;47.412;18.884;2023-01-26T01:52:09;99933.13;;;1.49;100.00
56721;BME280;53183;47.412;18.884;2023-01-26T01:54:43;99924.41;;;1.51;100.00
56721;BME280;53183;47.412;18.884;2023-01-26T01:57:13;99930.50;;;1.52;100.00
56721;BME280;53183;47.412;18.884;2023-01-26T01:59:55;99924.44;;;1.50;100.00
56721;BME280;53183;47.412;18.884;2023-01-26T02:02:26;99921.78;;;1.54;100.00
56721;BME280;53183;47.412;18.884;2023-01-26T02:04:55;99917.25;;;1.75;100.00
56721;BME280;53183;47.412;18.884;2023-01-26T02:07:24;99920.69;;;1.74;100.00
56721;BME280;53183;47.412;18.884;2023-01-26T02:09:51;99911.09;;;1.77;100.00
56721;BME280;53183;47.412;18.884;2023-01-26T02:12:38;99905.09;;;1.71;100.00
56721;BME280;53183;47.412;18.884;2023-01-26T02:15:07;99907.72;;;1.72;100.00
56721;BME280;53183;47.412;18.884;2023-01-26T02:17:34;99905.00;;;1.80;100.00
56721;BME280;53183;47.412;18.884;2023-01-26T02:25:12;99895.44;;;1.80;100.00
56721;BME280;53183;47.412;18.884;2023-01-26T02:27:44;99893.00;;;1.68;100.00
56721;BME280;53183;47.412;18.884;2023-01-26T02:30:11;99893.03;;;1.63;100.00
56721;BME280;53183;47.412;18.884;2023-01-26T02:32:39;99891.41;;;1.53;100.00
56721;BME280;53183;47.412;18.884;2023-01-26T02:35:07;99887.84;;;1.60;100.00
56721;BME280;53183;47.412;18.884;2023-01-26T02:37:34;99883.47;;;1.66;100.00
56721;BME280;53183;47.412;18.884;2023-01-26T02:40:04;99865.28;;;1.59;100.00
56721;BME280;53183;47.412;18.884;2023-01-26T02:42:34;99869.69;;;1.56;100.00
56721;BME280;53183;47.412;18.884;2023-01-26T02:45:12;99873.19;;;1.53;100.00
56721;BME280;53183;47.412;18.884;2023-01-26T02:47:40;99860.19;;;1.50;100.00
56721;BME280;53183;47.412;18.884;2023-01-26T02:50:08;99860.97;;;1.57;100.00
56721;BME280;53183;47.412;18.884;2023-01-26T02:52:37;99854.91;;;1.56;100.00
56721;BME280;53183;47.412;18.884;2023-01-26T02:55:05;99860.19;;;1.50;100.00
56721;BME280;53183;47.412;18.884;2023-01-26T02:57:49;99854.13;;;1.50;100.00
56721;BME280;53183;47.412;18.884;2023-01-26T03:00:20;99848.06;;;1.49;100.00
56721;BME280;53183;47.412;18.884;2023-01-26T03:02:50;99847.19;;;1.47;100.00
56721;BME280;53183;47.412;18.884;2023-01-26T03:05:18;99835.06;;;1.45;100.00
56721;BME280;53183;47.412;18.884;2023-01-26T03:07:46;99841.97;;;1.47;100.00
56721;BME280;53183;47.412;18.884;2023-01-26T03:10:13;99829.78;;;1.51;100.00
56721;BME280;53183;47.412;18.884;2023-01-26T03:12:43;99826.22;;;1.59;100.00
56721;BME280;53183;47.412;18.884;2023-01-26T03:15:11;99831.53;;;1.52;100.00
56721;BME280;53183;47.412;18.884;2023-01-26T03:18:04;99832.28;;;1.60;100.00
56721;BME280;53183;47.412;18.884;2023-01-26T03:20:50;99832.34;;;1.55;100.00
56721;BME280;53183;47.412;18.884;2023-01-26T03:23:36;99826.41;;;1.46;100.00
56721;BME280;53183;47.412;18.884;2023-01-26T03:26:22;99828.03;;;1.51;100.00
56721;BME280;53183;47.412;18.884;2023-01-26T03:29:09;99823.75;;;1.47;100.00
56721;BME280;53183;47.412;18.884;2023-01-26T03:31:38;99818.53;;;1.47;100.00
56721;BME280;53183;47.412;18.884;2023-01-26T03:34:06;99809.87;;;1.47;100.00
56721;BME280;53183;47.412;18.884;2023-01-26T03:36:34;99799.53;;;1.42;100.00
56721;BME280;53183;47.412;18.884;2023-01-26T03:39:02;99805.63;;;1.38;100.00
56721;BME280;53183;47.412;18.884;2023-01-26T03:41:30;99803.75;;;1.51;100.00
56721;BME280;53183;47.412;18.884;2023-01-26T03:44:16;99800.28;;;1.50;100.00
56721;BME280;53183;47.412;18.884;2023-01-26T03:47:02;99799.44;;;1.50;100.00
56721;BME280;53183;47.412;18.884;2023-01-26T03:49:51;99801.88;;;1.62;100.00
56721;BME280;53183;47.412;18.884;2023-01-26T03:52:38;99800.09;;;1.66;100.00
56721;BME280;53183;47.412;18.884;2023-01-26T03:55:25;99794.97;;;1.58;100.00
56721;BME280;53183;47.412;18.884;2023-01-26T03:58:12;99791.59;;;1.50;100.00
56721;BME280;53183;47.412;18.884;2023-01-26T04:00:40;99788.03;;;1.57;100.00
56721;BME280;53183;47.412;18.884;2023-01-26T04:03:07;99789.72;;;1.61;100.00
56721;BME280;53183;47.412;18.884;2023-01-26T04:05:56;99780.13;;;1.66;100.00
56721;BME280;53183;47.412;18.884;2023-01-26T04:08:48;99777.56;;;1.63;100.00
56721;BME280;53183;47.412;18.884;2023-01-26T04:11:15;99788.22;;;1.43;100.00
56721;BME280;53183;47.412;18.884;2023-01-26T04:13:42;99787.37;;;1.41;100.00
56721;BME280;53183;47.412;18.884;2023-01-26T04:16:29;99785.63;;;1.43;100.00
56721;BME280;53183;47.412;18.884;2023-01-26T04:19:15;99784.78;;;1.39;100.00
56721;BME280;53183;47.412;18.884;2023-01-26T04:22:02;99785.59;;;1.46;100.00
56721;BME280;53183;47.412;18.884;2023-01-26T04:24:29;99773.50;;;1.40;100.00
56721;BME280;53183;47.412;18.884;2023-01-26T04:26:57;99772.63;;;1.40;100.00
56721;BME280;53183;47.412;18.884;2023-01-26T04:29:25;99774.38;;;1.38;100.00
56721;BME280;53183;47.412;18.884;2023-01-26T04:31:53;99775.28;;;1.37;100.00
56721;BME280;53183;47.412;18.884;2023-01-26T04:34:20;99771.78;;;1.39;100.00
56721;BME280;53183;47.412;18.884;2023-01-26T04:36:49;99772.72;;;1.32;100.00
56721;BME280;53183;47.412;18.884;2023-01-26T04:39:17;99768.38;;;1.33;100.00
56721;BME280;53183;47.412;18.884;2023-01-26T04:41:44;99764.91;;;1.31;100.00
56721;BME280;53183;47.412;18.884;2023-01-26T04:44:12;99761.50;;;1.27;100.00
56721;BME280;53183;47.412;18.884;2023-01-26T04:46:40;99763.28;;;1.24;100.00
56721;BME280;53183;47.412;18.884;2023-01-26T04:49:09;99757.22;;;1.22;100.00
56721;BME280;53183;47.412;18.884;2023-01-26T04:51:38;99758.13;;;1.17;100.00
56721;BME280;53183;47.412;18.884;2023-01-26T04:54:05;99762.38;;;1.25;100.00
56721;BME280;53183;47.412;18.884;2023-01-26T04:56:34;99770.16;;;1.28;100.00
56721;BME280;53183;47.412;18.884;2023-01-26T04:59:04;99766.66;;;1.30;100.00
56721;BME280;53183;47.412;18.884;2023-01-26T05:01:32;99756.22;;;1.33;100.00
56721;BME280;53183;47.412;18.884;2023-01-26T05:04:01;99758.00;;;1.28;100.00
56721;BME280;53183;47.412;18.884;2023-01-26T05:06:30;99764.09;;;1.27;100.00
56721;BME280;53183;47.412;18.884;2023-01-26T05:08:57;99768.28;;;1.40;100.00
56721;BME280;53183;47.412;18.884;2023-01-26T05:11:25;99758.69;;;1.44;100.00
56721;BME280;53183;47.412;18.884;2023-01-26T05:13:53;99761.31;;;1.41;100.00
56721;BME280;53183;47.412;18.884;2023-01-26T05:16:21;99764.00;;;1.36;100.00
56721;BME280;53183;47.412;18.884;2023-01-26T05:18:49;99759.78;;;1.25;100.00
56721;BME280;53183;47.412;18.884;2023-01-26T05:21:16;99751.94;;;1.28;100.00
56721;BME280;53183;47.412;18.884;2023-01-26T05:23:44;99758.00;;;1.30;100.00
56721;BME280;53183;47.412;18.884;2023-01-26T05:26:12;99757.09;;;1.32;100.00
56721;BME280;53183;47.412;18.884;2023-01-26T05:28:41;99761.38;;;1.35;100.00
56721;BME280;53183;47.412;18.884;2023-01-26T05:31:08;99760.53;;;1.34;100.00
56721;BME280;53183;47.412;18.884;2023-01-26T05:33:36;99757.81;;;1.45;100.00
56721;BME280;53183;47.412;18.884;2023-01-26T05:36:05;99748.22;;;1.47;100.00
56721;BME280;53183;47.412;18.884;2023-01-26T05:38:33;99762.13;;;1.46;100.00
56721;BME280;53183;47.412;18.884;2023-01-26T05:41:01;99762.25;;;1.37;100.00
56721;BME280;53183;47.412;18.884;2023-01-26T05:43:30;99762.19;;;1.43;100.00
56721;BME280;53183;47.412;18.884;2023-01-26T05:45:57;99761.97;;;1.60;99.51
56721;BME280;53183;47.412;18.884;2023-01-26T05:48:25;99766.41;;;1.50;99.89
56721;BME280;53183;47.412;18.884;2023-01-26T05:50:54;99766.56;;;1.39;100.00
56721;BME280;53183;47.412;18.884;2023-01-26T05:53:21;99764.87;;;1.34;100.00
56721;BME280;53183;47.412;18.884;2023-01-26T05:55:50;99764.84;;;1.37;100.00
56721;BME280;53183;47.412;18.884;2023-01-26T05:58:17;99756.25;;;1.32;100.00
56721;BME280;53183;47.412;18.884;2023-01-26T06:00:45;99763.13;;;1.36;100.00
56721;BME280;53183;47.412;18.884;2023-01-26T06:03:15;99770.06;;;1.37;100.00
56721;BME280;53183;47.412;18.884;2023-01-26T06:05:43;99766.66;;;1.32;100.00
56721;BME280;53183;47.412;18.884;2023-01-26T06:08:11;99764.13;;;1.24;100.00
56721;BME280;53183;47.412;18.884;2023-01-26T06:10:40;99763.22;;;1.30;100.00
56721;BME280;53183;47.412;18.884;2023-01-26T06:13:08;99758.06;;;1.25;100.00
56721;BME280;53183;47.412;18.884;2023-01-26T06:15:35;99761.47;;;1.32;100.00
56721;BME280;53183;47.412;18.884;2023-01-26T06:18:03;99758.72;;;1.43;100.00
56721;BME280;53183;47.412;18.884;2023-01-26T06:20:30;99763.06;;;1.42;99.72
56721;BME280;53183;47.412;18.884;2023-01-26T06:22:58;99760.50;;;1.39;99.30
56721;BME280;53183;47.412;18.884;2023-01-26T06:25:28;99760.50;;;1.39;99.50
56721;BME280;53183;47.412;18.884;2023-01-26T06:27:56;99760.47;;;1.42;99.23
56721;BME280;53183;47.412;18.884;2023-01-26T06:30:24;99757.09;;;1.32;100.00
56721;BME280;53183;47.412;18.884;2023-01-26T06:32:52;99761.34;;;1.38;100.00
56721;BME280;53183;47.412;18.884;2023-01-26T06:35:20;99758.78;;;1.36;100.00
56721;BME280;53183;47.412;18.884;2023-01-26T06:37:50;99763.25;;;1.27;100.00
56721;BME280;53183;47.412;18.884;2023-01-26T06:40:18;99756.31;;;1.24;100.00
56721;BME280;53183;47.412;18.884;2023-01-26T06:42:48;99755.34;;;1.31;100.00
56721;BME280;53183;47.412;18.884;2023-01-26T06:45:16;99752.75;;;1.33;100.00
56721;BME280;53183;47.412;18.884;2023-01-26T06:47:47;99752.78;;;1.28;100.00
56721;BME280;53183;47.412;18.884;2023-01-26T06:50:19;99754.47;;;1.35;99.13
56721;BME280;53183;47.412;18.884;2023-01-26T06:52:51;99745.62;;;1.49;98.28
56721;BME280;53183;47.412;18.884;2023-01-26T06:55:23;99752.59;;;1.47;98.18
56721;BME280;53183;47.412;18.884;2023-01-26T06:57:57;99754.41;;;1.40;98.98
56721;BME280;53183;47.412;18.884;2023-01-26T07:00:25;99753.53;;;1.38;99.40
56721;BME280;53183;47.412;18.884;2023-01-26T07:02:52;99756.06;;;1.44;98.57
56721;BME280;53183;47.412;18.884;2023-01-26T07:05:20;99749.00;;;1.54;96.99
56721;BME280;53183;47.412;18.884;2023-01-26T07:07:47;99752.66;;;1.40;97.03
56721;BME280;53183;47.412;18.884;2023-01-26T07:10:14;99748.19;;;1.50;96.23
56721;BME280;53183;47.412;18.884;2023-01-26T07:12:43;99744.81;;;1.44;95.92
56721;BME280;53183;47.412;18.884;2023-01-26T07:15:11;99745.62;;;1.47;96.87
56721;BME280;53183;47.412;18.884;2023-01-26T07:17:39;99750.69;;;1.59;94.58
56721;BME280;53183;47.412;18.884;2023-01-26T07:20:06;99740.25;;;1.58;95.31
56721;BME280;53183;47.412;18.884;2023-01-26T07:22:34;99736.84;;;1.56;94.65
56721;BME280;53183;47.412;18.884;2023-01-26T07:25:01;99742.06;;;1.54;93.93
56721;BME280;53183;47.412;18.884;2023-01-26T07:27:29;99740.41;;;1.49;94.97
56721;BME280;53183;47.412;18.884;2023-01-26T07:29:56;99742.16;;;1.47;95.70
56721;BME280;53183;47.412;18.884;2023-01-26T07:32:23;99735.06;;;1.58;95.27
56721;BME280;53183;47.412;18.884;2023-01-26T07:34:51;99743.75;;;1.58;94.96
56721;BME280;53183;47.412;18.884;2023-01-26T07:37:18;99739.41;;;1.59;93.91
56721;BME280;53183;47.412;18.884;2023-01-26T07:39:45;99734.19;;;1.57;94.51
56721;BME280;53183;47.412;18.884;2023-01-26T07:42:15;99735.84;;;1.64;93.74
56721;BME280;53183;47.412;18.884;2023-01-26T07:44:43;99733.22;;;1.64;92.20
56721;BME280;53183;47.412;18.884;2023-01-26T07:47:11;99731.56;;;1.60;94.03
56721;BME280;53183;47.412;18.884;2023-01-26T07:49:38;99734.97;;;1.66;93.50
56721;BME280;53183;47.412;18.884;2023-01-26T07:52:05;99725.41;;;1.66;93.38
56721;BME280;53183;47.412;18.884;2023-01-26T07:54:34;99734.97;;;1.66;93.29
56721;BME280;53183;47.412;18.884;2023-01-26T07:57:02;99734.94;;;1.69;93.42
56721;BME280;53183;47.412;18.884;2023-01-26T07:59:29;99732.38;;;1.66;92.60
56721;BME280;53183;47.412;18.884;2023-01-26T08:01:56;99729.72;;;1.69;92.20
56721;BME280;53183;47.412;18.884;2023-01-26T08:04:24;99728.75;;;1.74;91.77
56721;BME280;53183;47.412;18.884;2023-01-26T08:06:51;99726.91;;;1.82;91.87
56721;BME280;53183;47.412;18.884;2023-01-26T08:09:18;99736.56;;;1.76;92.13
56721;BME280;53183;47.412;18.884;2023-01-26T08:11:46;99735.63;;;1.80;92.66
56721;BME280;53183;47.412;18.884;2023-01-26T08:14:13;99732.94;;;1.86;92.47
56721;BME280;53183;47.412;18.884;2023-01-26T08:16:40;99732.81;;;1.94;91.62
56721;BME280;53183;47.412;18.884;2023-01-26T08:19:08;99733.84;;;1.83;92.40
56721;BME280;53183;47.412;18.884;2023-01-26T08:21:35;99727.66;;;1.91;92.43
56721;BME280;53183;47.412;18.884;2023-01-26T08:24:03;99734.69;;;1.85;93.04
56721;BME280;53183;47.412;18.884;2023-01-26T08:26:31;99724.19;;;1.92;92.18
56721;BME280;53183;47.412;18.884;2023-01-26T08:28:58;99733.63;;;1.99;91.03
56721;BME280;53183;47.412;18.884;2023-01-26T08:31:25;99724.97;;;1.97;91.75
56721;BME280;53183;47.412;18.884;2023-01-26T08:33:54;99730.03;;;2.06;90.12
56721;BME280;53183;47.412;18.884;2023-01-26T08:36:22;99724.88;;;2.03;90.83
56721;BME280;53183;47.412;18.884;2023-01-26T08:38:49;99722.97;;;2.12;89.92
56721;BME280;53183;47.412;18.884;2023-01-26T08:41:17;99730.00;;;2.09;89.58
56721;BME280;53183;47.412;18.884;2023-01-26T08:43:44;99724.75;;;2.10;88.94
56721;BME280;53183;47.412;18.884;2023-01-26T08:46:12;99720.47;;;2.08;89.55
56721;BME280;53183;47.412;18.884;2023-01-26T08:48:40;99721.28;;;2.10;89.07
56721;BME280;53183;47.412;18.884;2023-01-26T08:51:07;99729.91;;;2.15;88.48
56721;BME280;53183;47.412;18.884;2023-01-26T08:53:35;99724.53;;;2.24;87.66
56721;BME280;53183;47.412;18.884;2023-01-26T08:56:04;99724.56;;;2.23;87.94
56721;BME280;53183;47.412;18.884;2023-01-26T08:58:32;99721.91;;;2.26;88.00
56721;BME280;53183;47.412;18.884;2023-01-26T09:01:03;99725.31;;;2.31;87.15
56721;BME280;53183;47.412;18.884;2023-01-26T09:03:31;99724.47;;;2.29;88.06
56721;BME280;53183;47.412;18.884;2023-01-26T09:05:59;99725.41;;;2.23;87.68
56721;BME280;53183;47.412;18.884;2023-01-26T09:08:26;99726.03;;;2.39;87.10
56721;BME280;53183;47.412;18.884;2023-01-26T09:10:53;99724.13;;;2.49;85.52
56721;BME280;53183;47.412;18.884;2023-01-26T09:13:22;99725.25;;;2.32;85.23
56721;BME280;53183;47.412;18.884;2023-01-26T09:15:49;99731.38;;;2.31;85.52
56721;BME280;53183;47.412;18.884;2023-01-26T09:18:17;99731.38;;;2.31;85.07
56721;BME280;53183;47.412;18.884;2023-01-26T09:20:44;99727.13;;;2.26;85.15
56721;BME280;53183;47.412;18.884;2023-01-26T09:23:11;99726.16;;;2.30;84.35
56721;BME280;53183;47.412;18.884;2023-01-26T09:25:39;99728.88;;;2.25;84.45
56721;BME280;53183;47.412;18.884;2023-01-26T09:28:06;99721.94;;;2.23;84.47
56721;BME280;53183;47.412;18.884;2023-01-26T09:30:33;99724.63;;;2.18;84.60
56721;BME280;53183;47.412;18.884;2023-01-26T09:33:02;99722.03;;;2.17;85.31
56721;BME280;53183;47.412;18.884;2023-01-26T09:35:30;99720.13;;;2.28;83.67
56721;BME280;53183;47.412;18.884;2023-01-26T09:37:59;99720.03;;;2.34;83.89
56721;BME280;53183;47.412;18.884;2023-01-26T09:40:34;99716.63;;;2.30;84.33
56721;BME280;53183;47.412;18.884;2023-01-26T09:48:40;99706.41;;;2.17;84.54
56721;BME280;53183;47.412;18.884;2023-01-26T09:51:14;99712.47;;;2.19;85.01
56721;BME280;53183;47.412;18.884;2023-01-26T09:53:44;99711.47;;;2.27;84.09
56721;BME280;53183;47.412;18.884;2023-01-26T09:56:16;99703.53;;;2.32;84.30
56721;BME280;53183;47.412;18.884;2023-01-26T10:01:37;99705.16;;;2.39;84.35
56721;BME280;53183;47.412;18.884;2023-01-26T10:06:55;99687.81;;;2.38;84.82
56721;BME280;53183;47.412;18.884;2023-01-26T10:09:25;99687.38;;;2.61;83.58
56721;BME280;53183;47.412;18.884;2023-01-26T10:11:57;99680.25;;;2.71;83.60
56721;BME280;53183;47.412;18.884;2023-01-26T10:16:59;99676.41;;;2.89;83.15
56721;BME280;53183;47.412;18.884;2023-01-26T10:19:32;99674.31;;;3.08;81.75
56721;BME280;53183;47.412;18.884;2023-01-26T10:22:05;99666.47;;;3.08;81.73
56721;BME280;53183;47.412;18.884;2023-01-26T10:24:34;99669.19;;;3.03;82.54
56721;BME280;53183;47.412;18.884;2023-01-26T10:27:05;99667.38;;;3.05;82.19
56721;BME280;53183;47.412;18.884;2023-01-26T10:29:36;99658.47;;;3.17;81.26
56721;BME280;53183;47.412;18.884;2023-01-26T10:32:03;99651.28;;;3.26;79.81
56721;BME280;53183;47.412;18.884;2023-01-26T10:34:31;99646.94;;;3.25;80.34
56721;BME280;53183;47.412;18.884;2023-01-26T10:37:22;99640.78;;;3.28;79.93
56721;BME280;53183;47.412;18.884;2023-01-26T10:39:57;99642.75;;;3.18;81.13
56721;BME280;53183;47.412;18.884;2023-01-26T10:42:30;99641.88;;;3.18;80.38
56721;BME280;53183;47.412;18.884;2023-01-26T10:44:58;99633.75;;;3.32;80.44
56721;BME280;53183;47.412;18.884;2023-01-26T10:47:27;99630.19;;;3.36;78.56
56721;BME280;53183;47.412;18.884;2023-01-26T10:50:17;99627.53;;;3.37;80.09
56721;BME280;53183;47.412;18.884;2023-01-26T10:52:56;99622.19;;;3.43;78.92
56721;BME280;53183;47.412;18.884;2023-01-26T10:55:24;99631.25;;;3.27;79.60
56721;BME280;53183;47.412;18.884;2023-01-26T10:57:52;99623.16;;;3.38;79.20
56721;BME280;53183;47.412;18.884;2023-01-26T11:00:29;99624.88;;;3.39;77.94
56721;BME280;53183;47.412;18.884;2023-01-26T11:03:00;99620.75;;;3.28;79.57
56721;BME280;53183;47.412;18.884;2023-01-26T11:05:30;99621.59;;;3.29;78.41
56721;BME280;53183;47.412;18.884;2023-01-26T11:07:58;99609.66;;;3.19;78.42
56721;BME280;53183;47.412;18.884;2023-01-26T11:15:49;99609.75;;;3.14;79.68
56721;BME280;53183;47.412;18.884;2023-01-26T11:18:23;99609.81;;;3.11;79.29
56721;BME280;53183;47.412;18.884;2023-01-26T11:21:08;99603.75;;;3.09;80.48
56721;BME280;53183;47.412;18.884;2023-01-26T11:23:45;99598.41;;;3.17;79.14
56721;BME280;53183;47.412;18.884;2023-01-26T11:29:10;99591.09;;;3.31;79.93
56721;BME280;53183;47.412;18.884;2023-01-26T11:34:33;99587.31;;;3.44;77.63
56721;BME280;53183;47.412;18.884;2023-01-26T11:42:50;99581.56;;;3.28;79.12
56721;BME280;53183;47.412;18.884;2023-01-26T12:03:49;99545.19;;;3.21;81.12
56721;BME280;53183;47.412;18.884;2023-01-26T12:08:51;99533.50;;;3.00;81.30
56721;BME280;53183;47.412;18.884;2023-01-26T12:11:24;99535.72;;;3.17;80.79
56721;BME280;53183;47.412;18.884;2023-01-26T12:16:39;99526.00;;;3.22;79.36
56721;BME280;53183;47.412;18.884;2023-01-26T12:21:44;99521.03;;;3.13;79.44
56721;BME280;53183;47.412;18.884;2023-01-26T12:24:17;99520.19;;;3.11;79.06
56721;BME280;53183;47.412;18.884;2023-01-26T12:27:18;99520.25;;;3.08;81.24
56721;BME280;53183;47.412;18.884;2023-01-26T12:32:15;99520.25;;;3.08;80.72
56721;BME280;53183;47.412;18.884;2023-01-26T12:34:42;99523.06;;;3.00;82.00
56721;BME280;53183;47.412;18.884;2023-01-26T12:39:52;99516.06;;;3.00;81.51
56721;BME280;53183;47.412;18.884;2023-01-26T12:42:31;99521.37;;;2.97;81.76
56721;BME280;53183;47.412;18.884;2023-01-26T12:45:03;99509.47;;;2.84;83.94
56721;BME280;53183;47.412;18.884;2023-01-26T12:57:53;99501.72;;;3.20;80.99
56721;BME280;53183;47.412;18.884;2023-01-26T13:00:23;99495.66;;;3.18;81.18
56721;BME280;53183;47.412;18.884;2023-01-26T13:02:52;99495.53;;;3.22;80.38
56721;BME280;53183;47.412;18.884;2023-01-26T13:05:23;99495.66;;;3.18;80.42
56721;BME280;53183;47.412;18.884;2023-01-26T13:07:51;99492.84;;;2.90;81.77
56721;BME280;53183;47.412;18.884;2023-01-26T13:10:20;99497.03;;;2.97;82.49
56721;BME280;53183;47.412;18.884;2023-01-26T13:12:54;99490.84;;;2.99;81.93
56721;BME280;53183;47.412;18.884;2023-01-26T13:15:23;99490.06;;;2.96;82.50
56721;BME280;53183;47.412;18.884;2023-01-26T13:17:58;99491.00;;;2.93;81.82
56721;BME280;53183;47.412;18.884;2023-01-26T13:22:53;99485.56;;;3.02;81.44
56721;BME280;53183;47.412;18.884;2023-01-26T13:25:26;99486.38;;;3.06;80.69
56721;BME280;53183;47.412;18.884;2023-01-26T13:27:54;99494.19;;;3.06;80.85
56721;BME280;53183;47.412;18.884;2023-01-26T13:33:00;99483.25;;;2.90;81.22
56721;BME280;53183;47.412;18.884;2023-01-26T13:35:30;99484.88;;;2.94;82.31
56721;BME280;53183;47.412;18.884;2023-01-26T13:40:31;99477.47;;;2.76;82.62
56721;BME280;53183;47.412;18.884;2023-01-26T13:45:58;99480.06;;;2.77;84.18
56721;BME280;53183;47.412;18.884;2023-01-26T13:48:31;99484.28;;;2.83;84.00
56721;BME280;53183;47.412;18.884;2023-01-26T13:51:02;99487.62;;;2.88;83.36
56721;BME280;53183;47.412;18.884;2023-01-26T13:55:58;99491.41;;;2.75;83.19
56721;BME280;53183;47.412;18.884;2023-01-26T13:58:26;99486.19;;;2.76;84.12
56721;BME280;53183;47.412;18.884;2023-01-26T14:01:00;99480.97;;;2.75;83.50
56721;BME280;53183;47.412;18.884;2023-01-26T14:03:29;99479.22;;;2.75;82.95
56721;BME280;53183;47.412;18.884;2023-01-26T14:06:07;99474.31;;;2.62;82.86
56721;BME280;53183;47.412;18.884;2023-01-26T14:08:36;99472.69;;;2.56;83.78
56721;BME280;53183;47.412;18.884;2023-01-26T14:11:13;99473.63;;;2.53;83.87
56721;BME280;53183;47.412;18.884;2023-01-26T14:13:41;99474.75;;;2.40;85.53
56721;BME280;53183;47.412;18.884;2023-01-26T14:16:17;99475.47;;;2.48;84.05
56721;BME280;53183;47.412;18.884;2023-01-26T14:18:49;99475.41;;;2.50;83.88
56721;BME280;53183;47.412;18.884;2023-01-26T14:21:20;99479.09;;;2.41;84.17
56721;BME280;53183;47.412;18.884;2023-01-26T14:23:54;99478.44;;;2.31;85.08
56721;BME280;53183;47.412;18.884;2023-01-26T14:26:40;99480.31;;;2.25;85.33
56721;BME280;53183;47.412;18.884;2023-01-26T14:29:14;99491.75;;;2.18;86.09
56721;BME280;53183;47.412;18.884;2023-01-26T14:31:45;99481.16;;;2.25;86.86
56721;BME280;53183;47.412;18.884;2023-01-26T14:34:17;99481.09;;;2.28;86.27
56721;BME280;53183;47.412;18.884;2023-01-26T14:36:45;99477.59;;;2.29;86.37
56721;BME280;53183;47.412;18.884;2023-01-26T14:39:16;99477.59;;;2.29;86.96
56721;BME280;53183;47.412;18.884;2023-01-26T14:41:45;99483.88;;;2.21;86.95
56721;BME280;53183;47.412;18.884;2023-01-26T14:44:13;99482.00;;;2.26;87.00